Аэропорт: Мурманск. Мурманск

ICAO: ULMM

METAR:
2021-01-20 03:00:00
ULMM 200300Z 00000MPS 9999 FEW002 BKN035CB M18/M20 Q1015 R13/490342 NOSIG RMK QBB070 OBST OBSC QFE755
METAR:
2021-01-20 01:54:00
TAF ULMM 200154Z 2003/2103 35003G09MPS 3100 -SHSN BR FEW006 BKN016CB TEMPO 2003/2012 04003G10MPS 0200 +SHSN FZFG BKN001 BKN011CB BECMG 2012/2014 6000 NSW BKN011 TEMPO 2014/2103 04003G09MPS 0400 -SHSN FZFG BKN003 BKN011CB